Time;durP1;ratioP1;P1;durP2;ratioP2;P2;SDS_P1;SDS_P2;PMS_P1;PMS_P2;Temp;Humidity;BMP_temperature;BMP_pressure;BME280_temperature;BME280_humidity;BME280_pressure;Samples;Min_cycle;Max_cycle;Signal;HPM_P1;HPM_P2
2022/01/19 00:01:31;;;;;;;9.65;2.75;;;4.80;99.90;;;;;;5094325;27;20039;-86
2022/01/19 00:03:56;;;;;;;5.05;1.98;;;4.70;99.90;;;;;;5097816;27;20091;-85
2022/01/19 00:06:23;;;;;;;7.85;5.50;;;4.80;99.90;;;;;;5097742;27;20043;-85
2022/01/19 00:08:50;;;;;;;7.20;3.65;;;4.70;99.90;;;;;;5098066;27;20039;-85
2022/01/19 00:11:16;;;;;;;2.78;2.03;;;4.80;99.90;;;;;;5115406;27;20096;-85
2022/01/19 00:13:42;;;;;;;10.40;4.50;;;4.70;99.90;;;;;;5098315;28;20039;-85
2022/01/19 00:16:08;;;;;;;13.57;5.50;;;4.70;99.90;;;;;;5098091;28;20117;-86
2022/01/19 00:18:34;;;;;;;6.97;3.33;;;4.60;99.90;;;;;;5098512;28;20154;-85
2022/01/19 00:20:59;;;;;;;8.95;3.80;;;4.60;99.90;;;;;;5115911;28;20042;-85
2022/01/19 00:23:25;;;;;;;18.70;6.75;;;4.60;99.90;;;;;;5098887;28;20557;-85
2022/01/19 00:25:53;;;;;;;11.60;3.13;;;4.60;99.90;;;;;;5098847;28;20126;-85
2022/01/19 00:28:20;;;;;;;6.32;2.92;;;4.60;99.90;;;;;;5098659;28;20081;-85
2022/01/19 00:30:45;;;;;;;6.95;3.85;;;4.60;99.90;;;;;;5115600;28;20407;-85
2022/01/19 00:33:13;;;;;;;7.80;1.95;;;4.50;99.90;;;;;;5098987;28;20027;-85
2022/01/19 00:35:39;;;;;;;5.40;2.65;;;4.50;99.90;;;;;;5098601;28;20075;-85
2022/01/19 00:38:07;;;;;;;7.10;3.08;;;4.50;99.90;;;;;;5115415;28;20373;-85
2022/01/19 00:40:33;;;;;;;11.25;4.38;;;4.50;99.90;;;;;;5098606;28;20054;-85
2022/01/19 00:42:59;;;;;;;3.10;1.73;;;4.50;99.90;;;;;;5098381;28;20474;-85
2022/01/19 00:45:24;;;;;;;2.15;1.23;;;4.40;99.90;;;;;;5098578;28;20039;-85
2022/01/19 00:47:50;;;;;;;1.30;1.20;;;4.40;99.90;;;;;;5098112;28;20074;-85
2022/01/19 00:50:20;;;;;;;10.23;2.90;;;4.40;99.90;;;;;;5115356;28;20528;-85
2022/01/19 00:52:46;;;;;;;6.70;2.92;;;4.30;99.90;;;;;;5098676;28;20065;-85
2022/01/19 00:55:13;;;;;;;5.45;2.88;;;4.30;99.90;;;;;;5098580;28;20035;-85
2022/01/19 00:57:39;;;;;;;6.43;3.08;;;4.20;99.90;;;;;;5115003;28;20042;-85
2022/01/19 01:00:09;;;;;;;7.45;2.67;;;4.20;99.90;;;;;;5098402;28;20035;-85
2022/01/19 01:02:35;;;;;;;1.92;1.02;;;4.20;99.90;;;;;;5098468;28;20061;-85
2022/01/19 01:05:01;;;;;;;14.40;5.05;;;4.20;99.90;;;;;;5098634;28;20558;-85
2022/01/19 01:07:27;;;;;;;10.02;3.67;;;4.20;99.90;;;;;;5098349;28;20027;-85
2022/01/19 01:09:53;;;;;;;14.93;3.75;;;4.20;99.90;;;;;;5100752;27;20611;-85
2022/01/19 01:12:21;;;;;;;2.75;1.88;;;4.20;99.90;;;;;;5102076;27;20035;-85
2022/01/19 01:20:16;;;;;;;5.68;3.10;;;4.20;99.90;;;;;;5119303;27;20485;-85
2022/01/19 01:22:43;;;;;;;0.40;0.40;;;4.20;99.90;;;;;;5118959;27;20035;-85
2022/01/19 01:25:09;;;;;;;0.90;0.90;;;4.20;99.90;;;;;;5101989;27;20126;-85
2022/01/19 01:27:35;;;;;;;1.65;1.15;;;4.20;99.90;;;;;;5118613;27;20080;-85
2022/01/19 01:30:01;;;;;;;14.38;1.83;;;4.20;99.90;;;;;;5101750;27;20031;-85
2022/01/19 01:32:26;;;;;;;9.70;2.10;;;4.20;99.90;;;;;;5102155;27;20560;-85
2022/01/19 01:34:53;;;;;;;4.05;2.50;;;4.20;99.90;;;;;;5118786;27;20066;-85
2022/01/19 01:37:19;;;;;;;12.25;4.00;;;4.20;99.90;;;;;;5101378;27;20042;-84
2022/01/19 01:39:45;;;;;;;4.85;1.40;;;4.20;99.90;;;;;;5101409;27;20031;-85
2022/01/19 01:42:13;;;;;;;4.40;3.05;;;4.20;99.90;;;;;;5101439;27;20074;-85
2022/01/19 01:44:41;;;;;;;6.22;4.00;;;4.20;99.90;;;;;;5101608;27;20122;-85
2022/01/19 01:47:07;;;;;;;16.77;5.43;;;4.20;99.90;;;;;;5101513;27;20050;-85
2022/01/19 01:53:16;;;;;;;10.85;4.93;;;4.20;99.90;;;;;;5101459;27;20095;-85
2022/01/19 01:55:14;;;;;;;18.63;3.80;;;4.10;99.90;;;;;;5118178;27;20450;-85
2022/01/19 01:57:40;;;;;;;2.50;1.70;;;4.00;99.90;;;;;;5100954;27;20415;-85
2022/01/19 02:00:10;;;;;;;6.78;3.35;;;4.00;99.90;;;;;;5101215;27;20093;-85
2022/01/19 02:02:36;;;;;;;2.47;1.45;;;4.00;99.90;;;;;;5101372;27;20522;-85
2022/01/19 02:05:03;;;;;;;6.20;2.80;;;4.00;99.90;;;;;;5101090;27;20035;-85
2022/01/19 02:07:34;;;;;;;2.20;1.67;;;3.90;99.90;;;;;;5100651;27;20035;-85
2022/01/19 02:10:03;;;;;;;17.05;4.22;;;3.90;99.90;;;;;;5100907;27;20039;-85
2022/01/19 02:23:46;;;;;;;7.50;3.35;;;3.80;99.90;;;;;;5117883;27;20145;-85
2022/01/19 02:26:19;;;;;;;2.92;1.65;;;3.80;99.90;;;;;;5100375;27;20035;-86
2022/01/19 02:29:07;;;;;;;5.65;2.63;;;3.70;99.90;;;;;;5118035;27;20484;-85
2022/01/19 02:40:07;;;;;;;3.70;2.00;;;3.70;99.90;;;;;;5117337;27;20495;-85
2022/01/19 02:42:39;;;;;;;2.77;1.53;;;3.70;99.90;;;;;;5117361;27;20107;-86
2022/01/19 02:49:58;;;;;;;4.80;2.42;;;3.70;99.90;;;;;;5117239;27;20039;-85
2022/01/19 02:52:24;;;;;;;6.57;3.88;;;3.80;99.90;;;;;;5100624;27;20046;-85
2022/01/19 02:54:51;;;;;;;3.00;1.65;;;3.60;99.90;;;;;;5100149;27;20084;-85
2022/01/19 02:57:20;;;;;;;7.88;3.72;;;3.60;99.90;;;;;;5099779;27;20160;-85
2022/01/19 03:10:24;;;;;;;5.97;1.88;;;3.50;99.90;;;;;;5116595;27;20046;-85
2022/01/19 03:12:49;;;;;;;0.40;0.40;;;3.40;99.90;;;;;;5116849;27;20035;-85
2022/01/19 03:15:15;;;;;;;47.72;5.53;;;3.40;99.90;;;;;;5100147;27;20479;-85
2022/01/19 03:17:41;;;;;;;3.72;2.08;;;3.40;99.90;;;;;;5099578;27;20042;-85
2022/01/19 03:20:08;;;;;;;3.83;2.83;;;3.40;99.90;;;;;;5099750;27;20040;-85
2022/01/19 03:22:40;;;;;;;14.63;3.80;;;3.40;99.90;;;;;;5099677;27;20038;-85
2022/01/19 03:25:12;;;;;;;2.20;1.77;;;3.40;99.90;;;;;;5099655;27;20035;-85
2022/01/19 03:27:39;;;;;;;3.15;1.50;;;3.40;99.90;;;;;;5099216;27;20037;-85
2022/01/19 03:30:08;;;;;;;13.10;3.88;;;3.40;99.90;;;;;;5099545;27;20121;-85
2022/01/19 03:32:34;;;;;;;4.85;3.05;;;3.30;99.90;;;;;;5098964;27;20035;-85
2022/01/19 03:35:00;;;;;;;5.15;3.08;;;3.30;99.90;;;;;;5099421;27;20058;-85
2022/01/19 03:37:25;;;;;;;3.15;2.03;;;3.20;99.90;;;;;;5099335;27;20482;-85
2022/01/19 03:39:51;;;;;;;3.63;1.92;;;3.20;99.90;;;;;;5099428;27;20031;-85
2022/01/19 03:42:17;;;;;;;4.28;2.42;;;3.10;99.90;;;;;;5099573;27;20034;-85
2022/01/19 03:44:43;;;;;;;9.85;3.75;;;3.10;99.90;;;;;;5099409;27;20049;-85
2022/01/19 03:47:09;;;;;;;13.30;3.28;;;3.10;99.90;;;;;;5099029;27;20039;-85
2022/01/19 03:49:35;;;;;;;3.92;2.78;;;3.10;99.90;;;;;;5099503;27;20039;-85
2022/01/19 03:52:03;;;;;;;2.80;2.35;;;3.00;99.90;;;;;;5099142;27;20043;-85
2022/01/19 03:54:34;;;;;;;3.65;2.22;;;3.00;99.90;;;;;;5099088;27;20443;-85
2022/01/19 03:57:00;;;;;;;2.45;1.70;;;3.00;99.90;;;;;;5099058;27;20035;-85
2022/01/19 03:59:26;;;;;;;4.85;3.30;;;2.90;99.90;;;;;;5116247;27;20037;-85
2022/01/19 04:01:53;;;;;;;4.07;2.65;;;2.90;99.90;;;;;;5099301;27;20035;-85
2022/01/19 04:04:35;;;;;;;1.73;1.45;;;2.90;99.90;;;;;;5099349;27;20060;-85
2022/01/19 04:07:08;;;;;;;5.38;3.25;;;2.80;99.90;;;;;;5098640;27;20043;-85
2022/01/19 04:09:43;;;;;;;2.95;1.85;;;2.80;99.90;;;;;;5099068;27;20042;-85
2022/01/19 04:12:12;;;;;;;2.22;1.88;;;2.80;99.90;;;;;;5098869;27;20050;-85
2022/01/19 04:14:38;;;;;;;3.38;1.83;;;2.80;99.90;;;;;;5116093;27;20130;-85
2022/01/19 04:17:13;;;;;;;6.28;4.07;;;2.80;99.90;;;;;;5098521;27;20501;-85
2022/01/19 04:22:07;;;;;;;5.65;3.45;;;2.80;99.90;;;;;;5115958;27;20078;-85
2022/01/19 04:24:33;;;;;;;1.75;1.13;;;2.80;99.90;;;;;;5099024;28;20043;-85
2022/01/19 04:29:51;;;;;;;2.78;2.15;;;2.80;99.90;;;;;;5115962;28;20082;-85
2022/01/19 04:32:21;;;;;;;2.28;1.30;;;2.70;99.90;;;;;;5115601;28;20043;-85
2022/01/19 04:34:49;;;;;;;1.45;1.25;;;2.80;99.90;;;;;;5115673;28;20434;-85
2022/01/19 05:01:43;;;;;;;1.05;0.95;;;2.70;99.90;;;;;;5119056;27;20072;-86
2022/01/19 05:07:06;;;;;;;4.22;2.45;;;2.70;99.90;;;;;;5097850;28;20048;-86
2022/01/19 05:14:45;;;;;;;4.95;3.53;;;2.70;99.90;;;;;;5098007;28;20043;-86
2022/01/19 05:17:11;;;;;;;1.80;1.05;;;2.70;99.90;;;;;;5097939;28;20127;-86
2022/01/19 05:19:36;;;;;;;1.20;0.93;;;2.80;99.90;;;;;;5081099;28;20035;-86
2022/01/19 05:22:02;;;;;;;6.93;4.65;;;2.80;99.90;;;;;;5084213;27;20499;-85
2022/01/19 05:24:28;;;;;;;3.22;2.53;;;2.80;99.90;;;;;;5118403;27;20407;-86
2022/01/19 05:26:53;;;;;;;0.63;0.63;;;2.80;99.90;;;;;;5102797;27;20061;-86
2022/01/19 05:29:19;;;;;;;0.60;0.60;;;2.80;99.90;;;;;;5117485;27;20486;-86
2022/01/19 05:31:44;;;;;;;1.02;0.93;;;2.90;99.90;;;;;;5121654;27;20449;-86
2022/01/19 05:34:10;;;;;;;0.35;0.35;;;2.90;99.90;;;;;;5139029;27;20125;-86
2022/01/19 05:36:36;;;;;;;1.20;0.82;;;2.90;99.90;;;;;;5121183;27;20031;-86
2022/01/19 05:39:04;;;;;;;2.20;1.27;;;2.90;99.90;;;;;;5121546;27;20034;-86
2022/01/19 05:41:31;;;;;;;4.18;2.63;;;2.90;99.90;;;;;;5121355;27;20038;-86
2022/01/19 05:43:57;;;;;;;2.08;0.88;;;2.90;99.90;;;;;;5138653;27;20077;-86
2022/01/19 05:46:23;;;;;;;2.47;1.77;;;2.90;99.90;;;;;;5120955;27;20074;-86
2022/01/19 05:48:48;;;;;;;1.65;1.10;;;3.00;99.90;;;;;;5138493;27;20039;-86
2022/01/19 05:51:14;;;;;;;0.50;0.50;;;3.00;99.90;;;;;;5108851;27;20117;-86
2022/01/19 05:53:40;;;;;;;1.80;1.60;;;3.00;99.90;;;;;;5138263;27;20038;-85
2022/01/19 05:56:06;;;;;;;4.47;2.67;;;3.00;99.90;;;;;;5119862;27;20038;-85
2022/01/19 05:58:32;;;;;;;3.15;1.52;;;3.10;99.90;;;;;;5121003;27;20043;-85
2022/01/19 06:00:58;;;;;;;3.90;3.00;;;3.10;99.90;;;;;;5121182;27;20127;-85
2022/01/19 06:03:23;;;;;;;3.22;1.67;;;3.00;99.90;;;;;;5138125;27;20107;-86
2022/01/19 06:05:49;;;;;;;8.48;4.20;;;3.10;99.90;;;;;;5121267;27;20567;-86
2022/01/19 06:08:28;;;;;;;3.88;2.70;;;3.10;99.90;;;;;;5120832;27;20079;-86
2022/01/19 06:10:55;;;;;;;1.20;1.10;;;3.10;99.90;;;;;;5138254;27;20484;-85
2022/01/19 06:13:22;;;;;;;7.15;3.25;;;3.10;99.90;;;;;;5118721;27;20077;-86
2022/01/19 06:15:49;;;;;;;2.72;2.20;;;3.10;99.90;;;;;;5114745;27;20031;-85
2022/01/19 06:18:16;;;;;;;6.15;4.00;;;3.10;99.90;;;;;;5137508;27;20037;-85
2022/01/19 06:20:43;;;;;;;3.88;2.30;;;3.10;99.90;;;;;;5120746;27;20125;-85
2022/01/19 06:23:09;;;;;;;3.95;2.35;;;3.10;99.90;;;;;;5137792;27;20043;-85
2022/01/19 06:25:35;;;;;;;3.13;2.00;;;3.10;99.90;;;;;;5137718;27;20039;-85
2022/01/19 06:28:01;;;;;;;7.85;3.78;;;3.10;99.90;;;;;;5137762;27;20395;-85
2022/01/19 06:30:26;;;;;;;0.82;0.68;;;3.20;99.90;;;;;;5109124;27;20039;-86
2022/01/19 06:32:52;;;;;;;2.85;2.55;;;3.10;99.90;;;;;;5117083;27;20500;-85
2022/01/19 06:35:18;;;;;;;8.02;3.40;;;3.10;99.90;;;;;;5099992;27;20039;-85
2022/01/19 06:37:44;;;;;;;2.42;2.20;;;3.00;99.90;;;;;;5100490;27;20046;-86
2022/01/19 06:40:12;;;;;;;3.90;2.92;;;3.00;99.90;;;;;;5106891;27;20505;-85
2022/01/19 06:42:38;;;;;;;4.63;1.83;;;4.00;99.90;;;;;;5100048;27;20039;-85
2022/01/19 06:45:05;;;;;;;8.27;3.92;;;3.00;99.90;;;;;;5099898;27;20469;-86
2022/01/19 06:47:30;;;;;;;2.65;1.42;;;3.00;99.90;;;;;;5099541;27;20480;-85
2022/01/19 06:49:56;;;;;;;8.98;4.03;;;3.00;99.90;;;;;;5099876;27;20098;-85
2022/01/19 06:52:22;;;;;;;4.35;1.02;;;3.00;99.90;;;;;;5099485;27;20040;-85
2022/01/19 06:54:48;;;;;;;1.20;0.98;;;3.00;99.90;;;;;;5099793;27;20037;-85
2022/01/19 06:57:14;;;;;;;1.98;1.45;;;3.10;99.90;;;;;;5099541;27;20088;-85
2022/01/19 06:59:40;;;;;;;1.23;1.13;;;3.00;99.90;;;;;;5116406;27;20046;-85
2022/01/19 07:02:05;;;;;;;0.63;0.63;;;3.00;99.90;;;;;;5112012;27;20031;-85
2022/01/19 07:04:31;;;;;;;5.10;2.38;;;3.20;99.90;;;;;;5136768;27;20066;-85
2022/01/19 07:06:57;;;;;;;4.68;2.88;;;3.10;99.90;;;;;;5119644;27;20039;-86
2022/01/19 07:09:22;;;;;;;3.30;2.13;;;3.00;99.90;;;;;;5130490;27;20031;-86
2022/01/19 07:11:49;;;;;;;9.70;4.20;;;3.00;99.90;;;;;;5099325;27;20046;-86
2022/01/19 07:14:17;;;;;;;10.20;4.95;;;3.00;99.90;;;;;;5099144;27;20046;-85
2022/01/19 07:16:42;;;;;;;4.35;2.08;;;3.00;99.90;;;;;;5098919;27;20506;-86
2022/01/19 07:19:08;;;;;;;2.92;2.33;;;3.00;99.90;;;;;;5099241;27;20027;-86
2022/01/19 07:22:26;;;;;;;2.17;1.80;;;3.00;99.90;;;;;;5099068;27;20122;-86
2022/01/19 07:24:52;;;;;;;6.18;2.55;;;3.00;99.90;;;;;;5118675;27;20043;-86
2022/01/19 07:27:18;;;;;;;9.45;4.38;;;3.00;99.90;;;;;;5114511;27;20061;-86
2022/01/19 07:29:43;;;;;;;7.85;4.20;;;3.10;99.90;;;;;;5119325;27;20129;-86
2022/01/19 07:32:11;;;;;;;6.43;3.55;;;3.00;99.90;;;;;;5109914;27;20462;-86
2022/01/19 07:34:37;;;;;;;8.10;3.53;;;3.00;99.90;;;;;;5115681;27;20076;-86
2022/01/19 07:37:03;;;;;;;11.00;5.55;;;3.00;99.90;;;;;;5098997;27;20086;-85
2022/01/19 07:39:29;;;;;;;11.57;4.65;;;3.10;99.90;;;;;;5098813;27;20045;-86
2022/01/19 07:41:55;;;;;;;8.38;4.95;;;3.00;99.90;;;;;;5098818;27;20043;-86
2022/01/19 07:44:22;;;;;;;4.45;2.90;;;3.00;99.90;;;;;;5115501;27;20424;-86
2022/01/19 07:46:48;;;;;;;4.13;2.30;;;3.00;99.90;;;;;;5121749;27;20042;-85
2022/01/19 07:49:15;;;;;;;9.20;4.55;;;3.00;99.90;;;;;;5113839;27;20035;-86
2022/01/19 07:51:40;;;;;;;5.50;2.55;;;3.00;99.90;;;;;;5102775;27;20046;-85
2022/01/19 07:54:06;;;;;;;5.95;2.63;;;3.00;99.90;;;;;;5105371;27;20031;-83
2022/01/19 07:56:31;;;;;;;6.82;3.58;;;3.00;99.90;;;;;;5098022;27;20056;-84
2022/01/19 07:58:57;;;;;;;6.05;3.33;;;3.00;99.90;;;;;;5098284;27;20042;-85
2022/01/19 08:01:37;;;;;;;7.82;4.18;;;3.00;99.90;;;;;;5118039;27;20551;-85
2022/01/19 08:04:03;;;;;;;7.97;2.67;;;3.00;99.90;;;;;;5078115;28;20035;-86
2022/01/19 08:06:28;;;;;;;4.57;2.90;;;3.00;99.90;;;;;;5077614;28;20066;-85
2022/01/19 08:08:54;;;;;;;9.90;4.40;;;3.00;99.90;;;;;;5077978;28;20036;-85
2022/01/19 08:11:20;;;;;;;3.92;2.42;;;3.00;99.90;;;;;;5077745;28;20039;-84
2022/01/19 08:13:46;;;;;;;3.90;1.98;;;3.00;99.90;;;;;;5092408;28;20038;-85
2022/01/19 08:16:12;;;;;;;4.57;2.95;;;3.10;99.90;;;;;;5097634;28;20122;-84
2022/01/19 08:18:40;;;;;;;4.43;2.67;;;3.10;99.90;;;;;;5097678;27;20084;-86
2022/01/19 08:21:06;;;;;;;9.07;5.57;;;3.10;99.90;;;;;;5098253;28;20497;-86
2022/01/19 08:23:32;;;;;;;7.80;4.68;;;3.10;99.90;;;;;;5098100;27;20130;-86
2022/01/19 08:25:57;;;;;;;8.93;5.18;;;3.10;99.90;;;;;;5098314;28;20130;-86
2022/01/19 08:28:23;;;;;;;15.73;7.53;;;3.10;99.90;;;;;;5097437;28;20122;-86
2022/01/19 08:30:48;;;;;;;3.67;2.05;;;3.50;99.90;;;;;;5098160;28;20035;-87
2022/01/19 08:33:14;;;;;;;14.70;7.70;;;3.10;99.90;;;;;;5115074;28;20179;-88
2022/01/19 08:35:40;;;;;;;12.68;5.57;;;3.10;99.90;;;;;;5102168;27;20487;-87
2022/01/19 08:38:05;;;;;;;7.00;3.60;;;3.10;99.90;;;;;;5104295;27;20084;-86
2022/01/19 08:40:33;;;;;;;18.02;6.70;;;3.20;99.90;;;;;;5118301;27;20099;-87
2022/01/19 08:43:00;;;;;;;14.70;7.60;;;3.20;99.90;;;;;;5135610;27;20491;-86
2022/01/19 08:45:26;;;;;;;9.32;3.90;;;3.20;99.90;;;;;;5118260;27;20049;-87
2022/01/19 08:47:52;;;;;;;7.28;4.30;;;3.90;99.90;;;;;;5117950;27;20117;-87
2022/01/19 08:50:18;;;;;;;10.10;5.57;;;3.30;99.90;;;;;;5135340;27;20546;-87
2022/01/19 08:52:45;;;;;;;2.45;1.85;;;3.30;99.90;;;;;;5135429;27;20125;-87
2022/01/19 08:55:12;;;;;;;9.98;4.68;;;3.30;99.90;;;;;;5118208;27;20122;-87
2022/01/19 08:57:37;;;;;;;6.85;3.88;;;3.30;99.90;;;;;;5117499;27;20122;-84
2022/01/19 09:00:11;;;;;;;6.15;2.97;;;3.30;99.90;;;;;;5130863;27;20118;-87
2022/01/19 09:02:37;;;;;;;10.48;4.38;;;3.30;99.90;;;;;;5117106;28;20041;-87
2022/01/19 09:05:04;;;;;;;6.55;3.72;;;3.50;99.90;;;;;;5097719;28;20035;-87
2022/01/19 09:07:29;;;;;;;8.45;4.60;;;3.40;99.90;;;;;;5097481;28;20036;-87
2022/01/19 09:09:55;;;;;;;4.43;2.92;;;3.40;99.90;;;;;;5097806;28;20072;-87
2022/01/19 09:12:20;;;;;;;12.10;4.28;;;3.40;99.90;;;;;;5097532;28;20085;-87
2022/01/19 09:14:46;;;;;;;7.70;3.65;;;3.40;99.90;;;;;;5114781;28;20050;-85
2022/01/19 09:17:11;;;;;;;2.63;1.60;;;3.40;99.90;;;;;;5097209;28;20121;-86
2022/01/19 09:19:39;;;;;;;3.03;1.92;;;3.50;99.90;;;;;;5097478;28;20031;-86
2022/01/19 09:22:09;;;;;;;3.53;2.08;;;3.50;99.90;;;;;;5098824;27;20043;-88
2022/01/19 09:24:36;;;;;;;9.55;4.35;;;3.50;99.90;;;;;;5112805;27;20035;-90
2022/01/19 09:27:04;;;;;;;7.93;4.03;;;3.50;99.90;;;;;;5093668;28;20055;-87
2022/01/19 09:29:31;;;;;;;5.88;3.28;;;3.50;99.90;;;;;;5110548;27;20419;-88
2022/01/19 09:32:08;;;;;;;4.38;2.67;;;3.50;99.90;;;;;;5109143;27;20039;-84
2022/01/19 09:34:34;;;;;;;10.73;4.60;;;3.60;99.90;;;;;;5107561;27;20035;-85
2022/01/19 09:37:00;;;;;;;12.05;5.20;;;3.50;99.90;;;;;;5100600;27;20127;-85
2022/01/19 09:39:26;;;;;;;5.43;3.22;;;3.60;99.90;;;;;;5101153;27;20073;-84
2022/01/19 09:41:54;;;;;;;15.02;6.95;;;3.60;99.90;;;;;;5118039;27;20039;-85
2022/01/19 09:44:23;;;;;;;9.35;4.97;;;3.60;99.90;;;;;;5112416;27;20113;-85
2022/01/19 09:46:49;;;;;;;15.57;8.35;;;3.70;99.90;;;;;;5116548;27;20041;-87
2022/01/19 09:49:17;;;;;;;7.38;4.05;;;4.00;99.90;;;;;;5131013;27;20479;-86
2022/01/19 09:51:45;;;;;;;15.85;7.07;;;3.70;99.90;;;;;;5100613;27;20039;-87
2022/01/19 09:54:17;;;;;;;10.90;5.32;;;3.80;99.90;;;;;;5100606;27;20135;-87
2022/01/19 09:56:44;;;;;;;12.90;6.60;;;3.80;99.90;;;;;;5116929;27;20039;-85
2022/01/19 09:59:24;;;;;;;15.10;4.85;;;3.80;99.90;;;;;;5100339;27;20035;-86
2022/01/19 10:01:54;;;;;;;2.00;1.83;;;3.80;99.90;;;;;;5092316;27;20036;-87
2022/01/19 10:04:23;;;;;;;14.68;5.38;;;3.90;99.90;;;;;;5100994;27;20175;-87
2022/01/19 10:06:49;;;;;;;8.75;5.40;;;3.90;99.90;;;;;;5099554;27;20039;-86
2022/01/19 10:09:25;;;;;;;10.75;5.18;;;3.90;99.90;;;;;;5099675;27;20079;-87
2022/01/19 10:17:06;;;;;;;13.02;6.13;;;4.00;99.90;;;;;;5137005;27;20050;-87
2022/01/19 10:19:45;;;;;;;16.50;8.07;;;4.00;99.90;;;;;;5120640;27;20062;-87
2022/01/19 10:22:16;;;;;;;18.27;8.48;;;4.00;99.90;;;;;;5120707;27;20152;-86
2022/01/19 10:24:48;;;;;;;13.63;7.57;;;4.00;99.90;;;;;;5120787;27;20046;-88
2022/01/19 10:27:18;;;;;;;9.65;5.32;;;4.00;99.90;;;;;;5120361;27;20042;-86
2022/01/19 10:29:45;;;;;;;5.95;3.60;;;4.00;99.90;;;;;;5100412;27;20047;-85
2022/01/19 10:32:55;;;;;;;15.85;6.95;;;4.00;99.90;;;;;;5099690;27;20131;-85
2022/01/19 10:35:29;;;;;;;9.23;4.05;;;4.00;99.90;;;;;;5091905;27;20476;-84
2022/01/19 10:38:28;;;;;;;18.70;8.63;;;4.00;99.90;;;;;;5099416;27;20035;-84
2022/01/19 10:41:06;;;;;;;14.50;8.02;;;4.00;99.90;;;;;;5061941;27;20048;-84
2022/01/19 10:44:04;;;;;;;12.18;6.63;;;4.10;99.90;;;;;;5120170;27;20042;-85
2022/01/19 10:46:45;;;;;;;27.00;13.07;;;4.00;99.90;;;;;;5090362;27;20041;-85
2022/01/19 10:49:48;;;;;;;17.85;7.38;;;4.00;99.90;;;;;;5099418;27;20046;-84
2022/01/19 10:52:29;;;;;;;16.48;7.00;;;4.00;99.90;;;;;;5115490;27;20039;-85
2022/01/19 10:54:57;;;;;;;26.20;13.48;;;4.00;99.90;;;;;;5098612;27;20440;-85
2022/01/19 10:57:26;;;;;;;17.80;7.57;;;4.00;99.90;;;;;;5099516;27;20026;-85
2022/01/19 11:00:17;;;;;;;11.82;6.45;;;4.00;99.90;;;;;;5122501;27;20086;-85
2022/01/19 11:02:47;;;;;;;13.52;7.03;;;4.00;99.90;;;;;;5114683;27;20035;-85
2022/01/19 11:05:40;;;;;;;24.77;11.90;;;4.00;99.90;;;;;;5115145;27;20126;-85
2022/01/19 11:08:05;;;;;;;16.00;6.80;;;4.00;99.90;;;;;;5114396;27;20075;-87
2022/01/19 11:10:31;;;;;;;20.70;11.32;;;4.00;99.90;;;;;;5097718;27;20500;-85
2022/01/19 11:12:59;;;;;;;18.70;10.88;;;4.00;99.90;;;;;;5094890;27;20083;-86
2022/01/19 11:15:24;;;;;;;19.15;10.80;;;4.00;99.90;;;;;;5096768;27;20027;-85
2022/01/19 11:17:50;;;;;;;24.88;10.07;;;4.00;99.90;;;;;;5100464;27;20088;-85
2022/01/19 11:20:56;;;;;;;24.40;11.32;;;4.00;99.90;;;;;;5114334;27;20092;-86
2022/01/19 11:23:42;;;;;;;27.43;10.30;;;4.00;99.90;;;;;;5032980;28;20079;-85
2022/01/19 11:26:16;;;;;;;22.52;9.85;;;4.00;99.90;;;;;;5014565;28;20685;-86
2022/01/19 11:28:46;;;;;;;12.18;7.70;;;4.10;99.90;;;;;;5076346;27;20053;-85
2022/01/19 11:31:15;;;;;;;6.80;4.93;;;4.10;99.90;;;;;;5114270;27;20085;-85
2022/01/19 11:33:52;;;;;;;26.75;14.68;;;4.10;99.90;;;;;;5114664;27;20220;-85
2022/01/19 11:36:25;;;;;;;25.38;12.00;;;4.10;99.90;;;;;;5101014;27;20392;-85
2022/01/19 11:39:20;;;;;;;15.73;8.98;;;4.20;99.90;;;;;;5098844;27;20031;-86
2022/01/19 11:41:55;;;;;;;19.98;10.85;;;4.20;99.90;;;;;;5105610;27;20039;-86
2022/01/19 11:44:40;;;;;;;35.75;17.17;;;4.30;99.90;;;;;;5096591;27;20080;-86
2022/01/19 11:47:08;;;;;;;30.05;10.75;;;4.30;99.90;;;;;;5105439;27;20125;-85
2022/01/19 11:49:59;;;;;;;10.82;5.95;;;4.50;99.90;;;;;;5096860;27;20039;-85
2022/01/19 11:52:35;;;;;;;20.50;9.82;;;4.30;99.90;;;;;;5095917;28;20511;-86
2022/01/19 11:55:22;;;;;;;36.38;13.73;;;4.40;99.90;;;;;;5113174;27;20046;-86
2022/01/19 11:58:09;;;;;;;30.52;14.55;;;4.40;99.90;;;;;;5100109;27;20053;-86
2022/01/19 12:00:35;;;;;;;20.98;10.48;;;4.40;99.90;;;;;;5113512;27;20031;-85
2022/01/19 12:03:21;;;;;;;16.45;10.50;;;4.40;99.90;;;;;;5102581;27;20089;-86
2022/01/19 12:05:51;;;;;;;15.50;7.53;;;4.40;99.90;;;;;;5096492;27;20514;-84
2022/01/19 12:09:12;;;;;;;20.10;11.85;;;4.50;99.90;;;;;;5084864;27;20035;-84
2022/01/19 12:11:43;;;;;;;16.08;8.40;;;4.50;99.90;;;;;;5076467;28;20047;-84
2022/01/19 12:17:24;;;;;;;26.83;14.60;;;4.50;99.90;;;;;;5094352;28;20046;-84
2022/01/19 12:19:50;;;;;;;31.35;11.00;;;4.50;99.90;;;;;;5094789;28;20140;-85
2022/01/19 12:22:28;;;;;;;22.80;11.15;;;4.50;99.90;;;;;;5078048;28;20067;-85
2022/01/19 12:24:57;;;;;;;25.88;11.38;;;4.50;99.90;;;;;;5080291;27;20036;-87
2022/01/19 12:27:25;;;;;;;24.60;10.98;;;4.50;99.90;;;;;;5135042;27;20571;-88
2022/01/19 12:30:00;;;;;;;23.15;12.13;;;4.50;99.90;;;;;;5118415;27;20498;-86
2022/01/19 12:32:25;;;;;;;24.92;12.90;;;4.50;99.90;;;;;;5109906;27;20035;-87
2022/01/19 12:34:57;;;;;;;30.83;11.45;;;4.50;99.90;;;;;;5135458;27;20388;-86
2022/01/19 12:37:46;;;;;;;25.45;12.13;;;4.50;99.90;;;;;;5135302;27;20574;-86
2022/01/19 12:40:18;;;;;;;32.22;16.10;;;4.50;99.90;;;;;;5134861;27;20071;-87
2022/01/19 12:42:56;;;;;;;27.65;10.38;;;4.80;99.90;;;;;;5118335;27;20127;-87
2022/01/19 12:45:34;;;;;;;22.13;9.25;;;4.50;99.90;;;;;;5117993;27;20064;-86
2022/01/19 12:48:06;;;;;;;30.15;15.68;;;4.50;99.90;;;;;;5107129;28;20388;-86
2022/01/19 12:50:38;;;;;;;26.52;13.18;;;4.50;99.90;;;;;;5097619;28;20035;-86
2022/01/19 12:53:09;;;;;;;12.73;5.93;;;4.50;99.90;;;;;;5097375;28;20110;-86
2022/01/19 12:55:37;;;;;;;15.55;8.55;;;4.50;99.90;;;;;;5097630;28;20145;-86
2022/01/19 12:58:10;;;;;;;33.95;17.50;;;4.50;99.90;;;;;;5112304;27;20058;-86
2022/01/19 13:00:38;;;;;;;25.80;13.25;;;4.50;99.90;;;;;;5117980;27;20399;-85
2022/01/19 13:03:16;;;;;;;19.48;8.48;;;4.50;99.90;;;;;;5117919;27;20042;-84
2022/01/19 13:05:48;;;;;;;8.52;5.10;;;4.60;99.90;;;;;;5080837;28;20036;-84
2022/01/19 13:08:24;;;;;;;14.60;7.60;;;4.60;99.90;;;;;;5080610;28;20032;-84
2022/01/19 13:10:52;;;;;;;24.50;11.40;;;4.60;99.90;;;;;;5099756;27;20254;-84
2022/01/19 13:13:28;;;;;;;18.17;9.70;;;4.60;99.90;;;;;;5138846;27;20030;-84
2022/01/19 13:16:02;;;;;;;23.95;10.45;;;4.60;99.90;;;;;;5121885;27;20121;-84
2022/01/19 13:18:36;;;;;;;22.38;11.80;;;4.70;99.90;;;;;;5132384;27;20395;-85
2022/01/19 13:21:11;;;;;;;29.42;14.63;;;4.70;99.90;;;;;;5116712;27;20038;-85
2022/01/19 13:23:53;;;;;;;17.67;9.07;;;4.70;99.90;;;;;;5121649;27;20042;-85
2022/01/19 13:26:19;;;;;;;17.52;7.38;;;4.80;99.90;;;;;;5121124;27;20346;-86
2022/01/19 13:28:45;;;;;;;15.35;8.65;;;4.80;99.90;;;;;;5121880;27;20034;-85
2022/01/19 13:31:12;;;;;;;24.75;12.63;;;4.90;99.90;;;;;;5121452;27;20049;-84
2022/01/19 13:33:38;;;;;;;12.10;5.97;;;4.90;99.90;;;;;;5121461;27;20042;-85
2022/01/19 13:36:04;;;;;;;17.35;7.05;;;4.90;99.90;;;;;;5109422;27;20031;-84
2022/01/19 13:38:30;;;;;;;22.10;9.27;;;4.90;99.90;;;;;;5101132;27;20043;-84
2022/01/19 13:41:09;;;;;;;18.60;9.10;;;4.90;99.90;;;;;;5100801;27;20122;-84
2022/01/19 13:43:37;;;;;;;16.15;9.10;;;4.90;99.90;;;;;;5109128;27;20034;-82
2022/01/19 13:46:15;;;;;;;26.58;11.52;;;4.90;99.90;;;;;;5100465;27;20074;-83
2022/01/19 13:48:47;;;;;;;21.05;10.55;;;4.90;99.90;;;;;;5101139;27;20131;-83
2022/01/19 13:51:18;;;;;;;18.95;9.48;;;4.90;99.90;;;;;;5098036;27;20039;-82
2022/01/19 13:53:51;;;;;;;24.50;13.50;;;4.90;99.90;;;;;;5098723;27;20043;-82
2022/01/19 13:56:38;;;;;;;17.50;8.50;;;4.80;99.90;;;;;;5100319;27;20433;-82
2022/01/19 13:59:12;;;;;;;20.15;11.30;;;4.80;99.90;;;;;;5100693;27;20035;-83
2022/01/19 14:02:03;;;;;;;14.45;7.05;;;4.80;99.90;;;;;;5100585;27;20054;-83
2022/01/19 14:05:04;;;;;;;46.42;7.82;;;4.80;99.90;;;;;;5100884;27;20047;-83
2022/01/19 14:11:24;;;;;;;10.85;4.88;;;4.90;99.90;;;;;;5135580;27;20054;-84
2022/01/19 14:13:58;;;;;;;8.07;4.72;;;4.90;99.90;;;;;;5100290;27;20042;-83
2022/01/19 14:16:27;;;;;;;13.75;7.28;;;4.90;99.90;;;;;;5116460;27;20469;-84
2022/01/19 14:19:19;;;;;;;8.30;5.20;;;4.90;99.90;;;;;;5100361;27;20046;-83
2022/01/19 14:22:15;;;;;;;17.30;9.35;;;4.90;99.90;;;;;;5100354;27;20216;-83
2022/01/19 14:24:40;;;;;;;21.48;6.55;;;4.90;99.90;;;;;;5115553;27;20082;-85
2022/01/19 14:27:09;;;;;;;17.73;9.25;;;4.90;99.90;;;;;;5100137;27;20458;-87
2022/01/19 14:29:35;;;;;;;21.30;9.82;;;4.90;99.90;;;;;;5125046;27;20047;-86
2022/01/19 14:32:01;;;;;;;20.88;12.48;;;4.90;99.90;;;;;;5120307;27;20039;-85
2022/01/19 14:34:34;;;;;;;13.98;7.43;;;4.90;99.90;;;;;;5120417;27;20060;-86
2022/01/19 14:37:13;;;;;;;7.00;4.30;;;4.90;99.90;;;;;;5119882;27;20436;-86
2022/01/19 14:39:55;;;;;;;19.80;9.20;;;4.90;99.90;;;;;;5137517;27;20027;-86